Time;durP1;ratioP1;P1;durP2;ratioP2;P2;SDS_P1;SDS_P2;PMS_P1;PMS_P2;Temp;Humidity;BMP_temperature;BMP_pressure;BME280_temperature;BME280_humidity;BME280_pressure;Samples;Min_cycle;Max_cycle;Signal;HPM_P1;HPM_P2
2022/09/19 00:01:21;;;;;;;4.38;1.25;;;;;;;;;;5084574;28;20291;-15
2022/09/19 00:03:53;;;;;;;5.55;1.42;;;;;;;;;;5074230;28;20299;-15
2022/09/19 00:06:21;;;;;;;6.03;1.23;;;;;;;;;;5073666;28;20777;-12
2022/09/19 00:08:48;;;;;;;11.75;1.95;;;;;;;;;;5074279;28;20225;-15
2022/09/19 00:11:17;;;;;;;8.63;1.30;;;;;;;;;;5073602;28;21059;-15
2022/09/19 00:13:45;;;;;;;4.22;1.02;;;;;;;;;;5074242;28;20238;-15
2022/09/19 00:16:12;;;;;;;7.22;1.13;;;;;;;;;;5074148;28;20655;-15
2022/09/19 00:18:41;;;;;;;3.95;1.25;;;;;;;;;;5073567;28;20241;-15
2022/09/19 00:21:09;;;;;;;4.60;1.20;;;;;;;;;;5073427;28;20283;-15
2022/09/19 00:26:21;;;;;;;5.20;1.10;;;;;;;;;;5072484;28;20233;-17
2022/09/19 00:28:48;;;;;;;7.32;1.40;;;;;;;;;;5053827;28;20273;-17
2022/09/19 00:31:17;;;;;;;4.93;1.35;;;;;;;;;;5062519;28;20312;-17
2022/09/19 00:33:47;;;;;;;5.00;1.30;;;;;;;;;;5074261;28;20221;-14
2022/09/19 00:36:14;;;;;;;6.57;1.50;;;;;;;;;;5073742;28;20278;-15
2022/09/19 00:38:41;;;;;;;3.78;0.98;;;;;;;;;;5074300;28;20237;-15
2022/09/19 00:41:09;;;;;;;5.22;1.38;;;;;;;;;;5073265;28;20225;-15
2022/09/19 00:43:48;;;;;;;4.32;1.13;;;;;;;;;;5073301;28;20347;-15
2022/09/19 00:46:15;;;;;;;5.90;1.10;;;;;;;;;;5073252;28;20229;-15
2022/09/19 00:48:43;;;;;;;4.32;0.90;;;;;;;;;;5073469;28;20695;-15
2022/09/19 00:51:14;;;;;;;5.13;1.60;;;;;;;;;;5073717;28;20221;-15
2022/09/19 00:53:41;;;;;;;3.17;1.00;;;;;;;;;;5073052;28;20245;-15
2022/09/19 00:56:09;;;;;;;3.53;1.10;;;;;;;;;;5073451;28;21015;-15
2022/09/19 00:58:38;;;;;;;3.63;1.10;;;;;;;;;;5073251;28;20284;-15
2022/09/19 01:01:05;;;;;;;4.80;1.20;;;;;;;;;;5073641;28;20832;-15
2022/09/19 01:03:33;;;;;;;3.58;1.08;;;;;;;;;;5072031;28;20256;-15
2022/09/19 01:06:06;;;;;;;3.45;1.02;;;;;;;;;;5065644;28;20240;-15
2022/09/19 01:08:43;;;;;;;5.82;1.58;;;;;;;;;;5071817;28;20229;-12
2022/09/19 01:11:16;;;;;;;2.95;0.82;;;;;;;;;;5071710;28;20263;-14
2022/09/19 01:13:45;;;;;;;7.05;1.35;;;;;;;;;;5071584;28;20245;-15
2022/09/19 01:16:16;;;;;;;3.65;0.82;;;;;;;;;;5069865;28;20231;-15
2022/09/19 01:18:45;;;;;;;5.38;1.42;;;;;;;;;;5053727;28;20246;-15
2022/09/19 01:24:17;;;;;;;5.47;1.10;;;;;;;;;;5053187;28;20215;-15
2022/09/19 01:26:50;;;;;;;4.95;1.27;;;;;;;;;;5057579;28;20229;-14
2022/09/19 01:29:19;;;;;;;6.70;1.35;;;;;;;;;;5072901;28;20287;-15
2022/09/19 01:31:47;;;;;;;4.82;1.30;;;;;;;;;;5072914;28;20308;-14
2022/09/19 01:34:16;;;;;;;4.25;1.15;;;;;;;;;;5072972;28;20241;-15
2022/09/19 01:36:46;;;;;;;7.50;1.17;;;;;;;;;;5072858;28;20228;-15
2022/09/19 01:39:15;;;;;;;3.80;0.98;;;;;;;;;;5072668;28;20222;-15
2022/09/19 01:41:47;;;;;;;5.63;1.50;;;;;;;;;;5073009;28;20696;-14
2022/09/19 01:44:16;;;;;;;4.35;1.17;;;;;;;;;;5072796;28;20750;-15
2022/09/19 01:46:47;;;;;;;5.10;1.30;;;;;;;;;;5072148;28;20222;-14
2022/09/19 01:49:17;;;;;;;5.65;1.40;;;;;;;;;;5072106;28;20226;-15
2022/09/19 01:51:45;;;;;;;5.47;1.25;;;;;;;;;;5071704;28;20276;-15
2022/09/19 01:54:16;;;;;;;7.40;1.02;;;;;;;;;;5072672;28;20245;-15
2022/09/19 01:56:45;;;;;;;6.07;1.40;;;;;;;;;;5072715;28;20225;-15
2022/09/19 01:59:16;;;;;;;4.28;1.00;;;;;;;;;;5072044;28;20303;-15
2022/09/19 02:01:47;;;;;;;5.30;1.20;;;;;;;;;;5072965;28;20317;-15
2022/09/19 02:04:16;;;;;;;6.53;1.35;;;;;;;;;;5072701;28;20221;-15
2022/09/19 02:06:46;;;;;;;5.53;1.42;;;;;;;;;;5072572;28;20670;-15
2022/09/19 02:09:15;;;;;;;4.53;1.00;;;;;;;;;;5072538;28;20268;-14
2022/09/19 02:11:42;;;;;;;3.92;1.23;;;;;;;;;;5071331;28;20661;-15
2022/09/19 02:14:16;;;;;;;7.85;1.48;;;;;;;;;;5072032;28;20245;-15
2022/09/19 02:16:47;;;;;;;3.65;0.93;;;;;;;;;;5071654;28;21030;-15
2022/09/19 02:19:15;;;;;;;4.93;1.17;;;;;;;;;;5058801;28;20991;-15
2022/09/19 02:21:45;;;;;;;3.20;0.93;;;;;;;;;;5075885;22;20317;-14
2022/09/19 02:24:13;;;;;;;4.85;0.90;;;;;;;;;;5091993;28;20233;-13
2022/09/19 02:26:41;;;;;;;5.97;1.23;;;;;;;;;;5092714;28;20282;-14
2022/09/19 02:29:08;;;;;;;3.95;1.13;;;;;;;;;;5092788;28;20742;-14
2022/09/19 02:31:37;;;;;;;3.58;1.10;;;;;;;;;;5080261;28;20229;-14
2022/09/19 02:34:06;;;;;;;3.70;1.27;;;;;;;;;;5087905;28;20290;-13
2022/09/19 02:36:38;;;;;;;4.72;1.08;;;;;;;;;;5091501;28;20224;-14
2022/09/19 02:39:06;;;;;;;3.83;1.00;;;;;;;;;;5091602;28;20225;-14
2022/09/19 02:41:36;;;;;;;4.43;1.40;;;;;;;;;;5091780;28;20282;-14
2022/09/19 02:44:05;;;;;;;4.80;1.08;;;;;;;;;;5090981;28;20224;-14
2022/09/19 02:46:34;;;;;;;5.07;1.10;;;;;;;;;;5088954;28;20229;-13
2022/09/19 02:49:03;;;;;;;4.97;1.15;;;;;;;;;;5091384;28;20831;-13
2022/09/19 02:51:31;;;;;;;4.40;1.20;;;;;;;;;;5091900;28;20435;-14
2022/09/19 02:54:01;;;;;;;4.97;1.30;;;;;;;;;;5091467;28;20290;-14
2022/09/19 02:56:34;;;;;;;5.60;1.40;;;;;;;;;;5090782;28;20283;-13
2022/09/19 02:59:02;;;;;;;1.67;0.82;;;;;;;;;;5091441;28;20224;-14
2022/09/19 03:01:30;;;;;;;3.83;1.00;;;;;;;;;;5091035;28;20232;-14
2022/09/19 03:04:13;;;;;;;3.35;1.10;;;;;;;;;;5091327;28;20274;-14
2022/09/19 03:06:43;;;;;;;3.38;1.13;;;;;;;;;;5090652;28;20233;-14
2022/09/19 03:09:12;;;;;;;2.90;1.00;;;;;;;;;;5091916;28;20694;-14
2022/09/19 03:11:40;;;;;;;5.55;1.02;;;;;;;;;;5091432;28;20217;-14
2022/09/19 03:14:07;;;;;;;5.70;1.10;;;;;;;;;;5091451;28;20240;-14
2022/09/19 03:16:36;;;;;;;5.80;1.13;;;;;;;;;;5088999;28;20236;-13
2022/09/19 03:19:04;;;;;;;4.40;1.10;;;;;;;;;;5090812;28;20238;-14
2022/09/19 03:21:33;;;;;;;2.25;0.77;;;;;;;;;;5090670;28;20244;-14
2022/09/19 03:24:00;;;;;;;7.47;1.45;;;;;;;;;;5091158;28;20229;-13
2022/09/19 03:26:30;;;;;;;4.13;1.10;;;;;;;;;;5090476;28;20224;-13
2022/09/19 03:28:57;;;;;;;4.78;1.25;;;;;;;;;;5075534;28;20669;-14
2022/09/19 03:31:25;;;;;;;5.40;0.90;;;;;;;;;;5082820;28;20228;-14
2022/09/19 03:33:52;;;;;;;2.78;0.75;;;;;;;;;;5090939;28;20389;-14
2022/09/19 03:36:22;;;;;;;5.85;0.98;;;;;;;;;;5090937;28;20702;-14
2022/09/19 03:38:49;;;;;;;5.45;0.90;;;;;;;;;;5085218;28;20695;-13
2022/09/19 03:41:17;;;;;;;4.90;0.98;;;;;;;;;;5070738;28;20238;-13
2022/09/19 03:43:45;;;;;;;5.93;0.80;;;;;;;;;;5070705;28;20229;-14
2022/09/19 03:46:14;;;;;;;3.90;1.25;;;;;;;;;;5079230;28;20278;-14
2022/09/19 03:48:44;;;;;;;3.75;1.10;;;;;;;;;;5090917;28;20225;-14
2022/09/19 03:51:11;;;;;;;5.70;0.95;;;;;;;;;;5089487;28;20232;-14
2022/09/19 03:53:39;;;;;;;4.93;0.90;;;;;;;;;;5090670;28;20236;-14
2022/09/19 03:56:06;;;;;;;2.58;0.70;;;;;;;;;;5090849;28;20330;-14
2022/09/19 03:58:35;;;;;;;1.95;0.60;;;;;;;;;;5090929;28;20221;-14
2022/09/19 04:01:03;;;;;;;3.22;0.80;;;;;;;;;;5089735;28;20294;-13
2022/09/19 04:03:31;;;;;;;3.33;0.80;;;;;;;;;;5090632;28;20778;-14
2022/09/19 04:05:58;;;;;;;5.38;1.00;;;;;;;;;;5090684;28;20271;-14
2022/09/19 04:08:26;;;;;;;4.90;1.10;;;;;;;;;;5090680;28;20301;-14
2022/09/19 04:10:53;;;;;;;6.32;1.27;;;;;;;;;;5090233;28;20274;-14
2022/09/19 04:13:21;;;;;;;3.03;1.05;;;;;;;;;;5071543;28;20225;-14
2022/09/19 04:15:49;;;;;;;4.55;1.13;;;;;;;;;;5076993;28;20290;-14
2022/09/19 04:18:18;;;;;;;2.92;1.17;;;;;;;;;;5085982;28;20781;-14
2022/09/19 04:20:46;;;;;;;4.03;0.90;;;;;;;;;;5073492;28;20653;-14
2022/09/19 04:23:16;;;;;;;2.67;0.98;;;;;;;;;;5072812;28;20241;-14
2022/09/19 04:25:45;;;;;;;3.78;0.90;;;;;;;;;;5073536;28;20222;-13
2022/09/19 04:28:13;;;;;;;4.30;0.90;;;;;;;;;;5073513;28;20870;-14
2022/09/19 04:30:41;;;;;;;3.53;0.77;;;;;;;;;;5078534;28;20279;-14
2022/09/19 04:33:10;;;;;;;2.92;0.73;;;;;;;;;;5092940;28;20224;-14
2022/09/19 04:35:38;;;;;;;5.63;1.10;;;;;;;;;;5073821;28;20241;-14
2022/09/19 04:38:06;;;;;;;5.65;1.08;;;;;;;;;;5073109;28;20766;-13
2022/09/19 04:40:36;;;;;;;2.53;0.93;;;;;;;;;;5072860;28;20233;-14
2022/09/19 04:43:04;;;;;;;3.08;0.80;;;;;;;;;;5073081;28;21042;-14
2022/09/19 04:45:31;;;;;;;3.13;0.80;;;;;;;;;;5077674;28;20228;-14
2022/09/19 04:47:59;;;;;;;3.35;1.00;;;;;;;;;;5093098;28;20236;-14
2022/09/19 04:50:26;;;;;;;3.55;0.95;;;;;;;;;;5093606;28;20233;-14
2022/09/19 04:52:57;;;;;;;5.63;1.20;;;;;;;;;;5093394;28;20233;-14
2022/09/19 04:55:25;;;;;;;4.47;0.90;;;;;;;;;;5092086;28;20245;-14
2022/09/19 04:57:52;;;;;;;4.32;1.10;;;;;;;;;;5093827;28;20229;-14
2022/09/19 05:00:36;;;;;;;4.75;1.05;;;;;;;;;;5093391;28;20628;-14
2022/09/19 05:03:06;;;;;;;4.57;1.05;;;;;;;;;;5077432;28;21004;-13
2022/09/19 05:05:34;;;;;;;3.92;1.13;;;;;;;;;;5072433;28;20271;-14
2022/09/19 05:08:04;;;;;;;3.88;0.90;;;;;;;;;;5072631;28;20287;-14
2022/09/19 05:10:32;;;;;;;3.08;1.00;;;;;;;;;;5072966;28;20229;-14
2022/09/19 05:12:59;;;;;;;3.65;0.90;;;;;;;;;;5072613;28;20221;-14
2022/09/19 05:15:26;;;;;;;4.70;0.68;;;;;;;;;;5076403;28;20275;-14
2022/09/19 05:17:55;;;;;;;3.17;0.88;;;;;;;;;;5092135;28;20232;-14
2022/09/19 05:20:25;;;;;;;2.60;0.90;;;;;;;;;;5093264;28;20278;-14
2022/09/19 05:22:58;;;;;;;3.50;0.88;;;;;;;;;;5092546;28;20747;-13
2022/09/19 05:25:28;;;;;;;4.03;0.80;;;;;;;;;;5092964;28;20271;-14
2022/09/19 05:27:56;;;;;;;1.80;0.63;;;;;;;;;;5092799;28;20282;-14
2022/09/19 05:30:24;;;;;;;2.95;0.80;;;;;;;;;;5075208;28;20385;-14
2022/09/19 05:32:51;;;;;;;1.95;0.68;;;;;;;;;;5092910;28;20577;-14
2022/09/19 05:35:18;;;;;;;2.35;0.52;;;;;;;;;;5092468;28;20244;-14
2022/09/19 05:37:46;;;;;;;2.15;0.77;;;;;;;;;;5092971;28;20209;-14
2022/09/19 05:40:13;;;;;;;3.90;0.90;;;;;;;;;;5092228;28;20233;-14
2022/09/19 05:42:43;;;;;;;5.80;1.00;;;;;;;;;;5092639;28;20267;-14
2022/09/19 05:45:11;;;;;;;2.30;0.68;;;;;;;;;;5089082;28;20233;-14
2022/09/19 05:47:39;;;;;;;2.55;0.68;;;;;;;;;;5085250;28;20221;-14
2022/09/19 05:50:08;;;;;;;2.03;0.80;;;;;;;;;;5072176;28;20287;-13
2022/09/19 05:55:20;;;;;;;5.65;0.85;;;;;;;;;;5091183;28;20298;-14
2022/09/19 05:57:52;;;;;;;5.75;0.90;;;;;;;;;;5092509;28;20658;-14
2022/09/19 06:00:20;;;;;;;2.10;0.70;;;;;;;;;;5092220;28;20217;-14
2022/09/19 06:02:52;;;;;;;5.32;0.80;;;;;;;;;;5078598;28;20237;-14
2022/09/19 06:05:20;;;;;;;2.50;0.80;;;;;;;;;;5071917;28;20234;-14
2022/09/19 06:07:47;;;;;;;2.95;0.63;;;;;;;;;;5071792;28;20303;-14
2022/09/19 06:10:14;;;;;;;3.65;1.00;;;;;;;;;;5071753;28;20634;-13
2022/09/19 06:12:42;;;;;;;3.05;0.80;;;;;;;;;;5072251;28;20226;-14
2022/09/19 06:15:11;;;;;;;4.38;0.93;;;;;;;;;;5073314;28;20331;-13
2022/09/19 06:17:39;;;;;;;5.32;1.00;;;;;;;;;;5092067;28;20228;-14
2022/09/19 06:20:06;;;;;;;2.58;0.57;;;;;;;;;;5091480;28;20236;-14
2022/09/19 06:22:34;;;;;;;2.85;0.90;;;;;;;;;;5091771;28;20245;-14
2022/09/19 06:25:01;;;;;;;4.47;1.00;;;;;;;;;;5076204;28;20229;-14
2022/09/19 06:27:29;;;;;;;1.52;0.70;;;;;;;;;;5071934;28;20699;-14
2022/09/19 06:29:56;;;;;;;3.42;0.80;;;;;;;;;;5086604;28;20304;-14
2022/09/19 06:32:25;;;;;;;6.43;0.75;;;;;;;;;;5092496;28;20229;-14
2022/09/19 06:34:52;;;;;;;3.20;1.05;;;;;;;;;;5085017;28;20237;-14
2022/09/19 06:37:25;;;;;;;2.17;0.85;;;;;;;;;;5071254;28;20677;-14
2022/09/19 06:39:52;;;;;;;2.35;0.80;;;;;;;;;;5079369;28;20232;-14
2022/09/19 06:42:20;;;;;;;3.53;0.80;;;;;;;;;;5081955;28;20402;-14
2022/09/19 06:44:47;;;;;;;4.80;0.80;;;;;;;;;;5080156;28;20229;-14
2022/09/19 06:47:14;;;;;;;4.07;0.70;;;;;;;;;;5080443;28;21231;-13
2022/09/19 06:49:43;;;;;;;3.13;0.90;;;;;;;;;;5080184;28;20225;-14
2022/09/19 06:52:16;;;;;;;2.75;0.77;;;;;;;;;;5080503;28;20327;-13
2022/09/19 06:54:43;;;;;;;4.38;0.95;;;;;;;;;;5078980;28;20773;-14
2022/09/19 06:57:11;;;;;;;2.85;0.65;;;;;;;;;;5078931;28;20240;-14
2022/09/19 06:59:38;;;;;;;3.35;0.90;;;;;;;;;;5079882;28;20275;-13
2022/09/19 07:02:05;;;;;;;4.38;0.73;;;;;;;;;;5076919;28;20241;-14
2022/09/19 07:04:34;;;;;;;5.00;0.80;;;;;;;;;;5071406;28;20312;-14
2022/09/19 07:07:03;;;;;;;7.75;0.95;;;;;;;;;;5071181;28;20237;-14
2022/09/19 07:09:30;;;;;;;5.65;0.77;;;;;;;;;;5070346;28;20229;-14
2022/09/19 07:12:01;;;;;;;6.85;0.93;;;;;;;;;;5071248;28;20230;-13
2022/09/19 07:14:29;;;;;;;9.52;0.98;;;;;;;;;;5071097;28;20236;-14
2022/09/19 07:16:57;;;;;;;5.60;1.38;;;;;;;;;;5086930;28;20240;-14
2022/09/19 07:19:24;;;;;;;11.77;1.27;;;;;;;;;;5070500;28;20229;-14
2022/09/19 07:21:52;;;;;;;5.68;1.33;;;;;;;;;;5070581;28;20346;-14
2022/09/19 07:24:20;;;;;;;12.60;1.50;;;;;;;;;;5070193;28;20432;-13
2022/09/19 07:26:48;;;;;;;23.35;2.03;;;;;;;;;;5070531;28;20388;-14
2022/09/19 07:29:15;;;;;;;10.82;1.63;;;;;;;;;;5070424;28;20229;-14
2022/09/19 07:31:42;;;;;;;6.88;1.10;;;;;;;;;;5084432;28;20236;-14
2022/09/19 07:34:10;;;;;;;6.80;1.58;;;;;;;;;;5090707;28;20228;-14
2022/09/19 07:36:37;;;;;;;8.00;1.60;;;;;;;;;;5090747;28;20236;-14
2022/09/19 07:39:05;;;;;;;8.63;2.03;;;;;;;;;;5091050;28;20212;-14
2022/09/19 07:41:33;;;;;;;14.00;1.80;;;;;;;;;;5090093;28;20237;-14
2022/09/19 07:44:01;;;;;;;11.15;1.40;;;;;;;;;;5086384;28;20229;-14
2022/09/19 07:46:28;;;;;;;8.15;1.13;;;;;;;;;;5073835;28;20209;-14
2022/09/19 07:48:55;;;;;;;5.78;1.52;;;;;;;;;;5071099;28;20295;-14
2022/09/19 07:51:23;;;;;;;12.90;1.58;;;;;;;;;;5073705;28;20234;-14
2022/09/19 07:53:51;;;;;;;12.73;1.58;;;;;;;;;;5084800;28;20237;-14
2022/09/19 07:56:19;;;;;;;8.18;1.50;;;;;;;;;;5091355;28;20247;-14
2022/09/19 07:58:47;;;;;;;7.47;1.45;;;;;;;;;;5084008;28;20691;-14
2022/09/19 08:01:15;;;;;;;11.55;1.52;;;;;;;;;;5086345;28;20582;-14
2022/09/19 08:03:44;;;;;;;6.82;1.17;;;;;;;;;;5083075;28;20798;-14
2022/09/19 08:06:12;;;;;;;5.53;1.30;;;;;;;;;;5074801;28;20271;-14
2022/09/19 08:08:39;;;;;;;7.43;1.27;;;;;;;;;;5076539;28;20237;-14
2022/09/19 08:11:07;;;;;;;7.32;1.40;;;;;;;;;;5076389;28;20734;-13
2022/09/19 08:13:34;;;;;;;4.43;1.38;;;;;;;;;;5073580;28;20226;-14
2022/09/19 08:16:03;;;;;;;6.53;1.58;;;;;;;;;;5083694;28;20657;-14
2022/09/19 08:18:31;;;;;;;7.55;1.42;;;;;;;;;;5093939;28;20232;-14
2022/09/19 08:20:58;;;;;;;7.55;1.33;;;;;;;;;;5092770;28;20228;-14
2022/09/19 08:23:26;;;;;;;12.93;2.08;;;;;;;;;;5091718;28;21069;-14
2022/09/19 08:25:55;;;;;;;23.55;1.83;;;;;;;;;;5078924;28;20249;-14
2022/09/19 08:28:22;;;;;;;5.50;1.20;;;;;;;;;;5073685;28;20237;-14
2022/09/19 08:30:50;;;;;;;10.27;1.42;;;;;;;;;;5079501;28;20307;-14
2022/09/19 08:33:19;;;;;;;5.32;1.23;;;;;;;;;;5092956;28;20278;-14
2022/09/19 08:35:46;;;;;;;4.10;1.13;;;;;;;;;;5087942;28;20236;-14
2022/09/19 08:38:14;;;;;;;5.93;1.15;;;;;;;;;;5072883;28;20348;-14
2022/09/19 08:40:47;;;;;;;10.13;1.30;;;;;;;;;;5073730;28;20237;-14
2022/09/19 08:43:19;;;;;;;12.85;1.17;;;;;;;;;;5073203;28;20709;-14
2022/09/19 08:45:57;;;;;;;6.13;1.25;;;;;;;;;;5079231;28;20996;-14
2022/09/19 08:48:29;;;;;;;5.25;0.90;;;;;;;;;;5073208;28;20234;-14
2022/09/19 08:50:57;;;;;;;6.22;1.38;;;;;;;;;;5072959;28;20311;-14
2022/09/19 08:53:27;;;;;;;6.93;1.60;;;;;;;;;;5073408;28;20225;-14
2022/09/19 08:55:54;;;;;;;4.25;1.00;;;;;;;;;;5073484;28;20674;-14
2022/09/19 08:58:23;;;;;;;9.25;1.50;;;;;;;;;;5082917;28;20294;-14
2022/09/19 09:00:51;;;;;;;5.80;0.90;;;;;;;;;;5092690;28;20286;-14
2022/09/19 09:03:18;;;;;;;7.15;1.17;;;;;;;;;;5093335;28;20320;-14
2022/09/19 09:05:55;;;;;;;4.65;0.90;;;;;;;;;;5093337;28;20217;-14
2022/09/19 09:08:28;;;;;;;5.50;1.02;;;;;;;;;;5090918;28;20391;-14
2022/09/19 09:10:56;;;;;;;5.70;1.02;;;;;;;;;;5072926;28;20233;-14
2022/09/19 09:13:32;;;;;;;5.93;1.10;;;;;;;;;;5072279;28;20236;-14
2022/09/19 09:16:21;;;;;;;5.07;1.10;;;;;;;;;;5083545;28;20264;-14
2022/09/19 09:18:54;;;;;;;3.15;1.10;;;;;;;;;;5092578;28;20247;-14
2022/09/19 09:21:25;;;;;;;5.75;1.17;;;;;;;;;;5073475;28;20695;-14
2022/09/19 09:23:55;;;;;;;3.53;1.13;;;;;;;;;;5072858;28;20221;-14
2022/09/19 09:26:24;;;;;;;6.43;1.17;;;;;;;;;;5073063;28;20927;-14
2022/09/19 09:28:51;;;;;;;5.63;1.02;;;;;;;;;;5072211;28;20232;-14
2022/09/19 09:31:24;;;;;;;3.83;1.02;;;;;;;;;;5082067;28;20330;-14
2022/09/19 09:33:53;;;;;;;6.50;1.05;;;;;;;;;;5092286;28;20309;-14
2022/09/19 09:36:23;;;;;;;6.28;1.17;;;;;;;;;;5092208;28;20698;-14
2022/09/19 09:38:52;;;;;;;2.80;1.13;;;;;;;;;;5092240;28;20390;-14
2022/09/19 09:44:08;;;;;;;7.40;1.05;;;;;;;;;;5093313;28;20224;-13
2022/09/19 09:46:41;;;;;;;3.45;1.10;;;;;;;;;;5093452;28;20233;-14
2022/09/19 09:49:10;;;;;;;4.65;1.40;;;;;;;;;;5093422;28;20389;-14
2022/09/19 09:51:39;;;;;;;5.80;1.52;;;;;;;;;;5093387;28;20224;-14
2022/09/19 09:56:57;;;;;;;5.95;0.93;;;;;;;;;;5072227;28;20581;-14
2022/09/19 10:05:01;;;;;;;11.02;1.52;;;;;;;;;;5085980;28;20294;-14
2022/09/19 10:07:31;;;;;;;11.20;1.43;;;;;;;;;;5090359;28;20936;-14
2022/09/19 10:10:00;;;;;;;7.65;1.48;;;;;;;;;;5091274;28;20286;-14
2022/09/19 10:12:28;;;;;;;7.38;0.90;;;;;;;;;;5090477;28;20298;-14
2022/09/19 10:15:17;;;;;;;7.28;1.25;;;;;;;;;;5083928;28;20234;-14
2022/09/19 10:17:46;;;;;;;4.32;1.30;;;;;;;;;;5086526;28;20233;-14
2022/09/19 10:20:17;;;;;;;2.80;0.90;;;;;;;;;;5082896;28;20233;-14
2022/09/19 10:22:45;;;;;;;4.38;1.05;;;;;;;;;;5078573;28;20241;-14
2022/09/19 10:25:14;;;;;;;8.00;1.40;;;;;;;;;;5078278;28;21107;-14
2022/09/19 10:27:43;;;;;;;11.82;1.08;;;;;;;;;;5070496;28;20231;-13
2022/09/19 10:30:12;;;;;;;6.05;0.90;;;;;;;;;;5070859;28;20238;-14
2022/09/19 10:32:40;;;;;;;4.50;0.80;;;;;;;;;;5090802;28;20757;-14
2022/09/19 10:35:25;;;;;;;7.07;1.00;;;;;;;;;;5091235;28;20275;-14
2022/09/19 10:37:53;;;;;;;6.88;0.90;;;;;;;;;;5072607;28;20245;-14
2022/09/19 10:40:23;;;;;;;11.20;1.05;;;;;;;;;;5070967;28;20908;-14
2022/09/19 10:42:50;;;;;;;3.35;0.80;;;;;;;;;;5070818;28;20695;-14
2022/09/19 10:45:19;;;;;;;3.20;0.90;;;;;;;;;;5073484;28;20229;-14
2022/09/19 10:47:48;;;;;;;6.05;1.00;;;;;;;;;;5085314;28;20249;-14
2022/09/19 10:50:16;;;;;;;5.18;1.00;;;;;;;;;;5071059;28;20230;-14
2022/09/19 10:52:44;;;;;;;4.32;0.90;;;;;;;;;;5070525;28;20229;-14
2022/09/19 10:55:20;;;;;;;12.13;1.15;;;;;;;;;;5070117;28;20766;-14
2022/09/19 10:57:49;;;;;;;5.65;1.10;;;;;;;;;;5070641;28;20962;-14
2022/09/19 11:00:23;;;;;;;4.45;0.82;;;;;;;;;;5076816;28;20276;-14
2022/09/19 11:02:57;;;;;;;3.92;0.80;;;;;;;;;;5070620;28;20271;-13
2022/09/19 11:05:24;;;;;;;3.45;0.85;;;;;;;;;;5091008;28;20690;-14
2022/09/19 11:07:54;;;;;;;4.57;0.80;;;;;;;;;;5090658;28;20228;-14
2022/09/19 11:10:33;;;;;;;7.88;0.82;;;;;;;;;;5080212;28;20233;-14
2022/09/19 11:13:14;;;;;;;13.57;1.25;;;;;;;;;;5072057;28;20231;-14
2022/09/19 11:15:49;;;;;;;5.90;1.10;;;;;;;;;;5088376;28;21011;-14
2022/09/19 11:18:16;;;;;;;13.13;1.08;;;;;;;;;;5083450;28;20658;-14
2022/09/19 11:20:47;;;;;;;18.95;1.88;;;;;;;;;;5072499;28;20294;-14
2022/09/19 11:23:28;;;;;;;12.00;1.40;;;;;;;;;;5078313;28;20241;-14
2022/09/19 11:25:58;;;;;;;15.65;1.15;;;;;;;;;;5070543;28;20283;-14
2022/09/19 11:28:28;;;;;;;19.42;2.25;;;;;;;;;;5070211;28;20275;-14
2022/09/19 11:30:57;;;;;;;5.60;1.08;;;;;;;;;;5080845;28;20221;-14
2022/09/19 11:33:35;;;;;;;12.65;1.23;;;;;;;;;;5078740;28;20415;-14
2022/09/19 11:36:26;;;;;;;6.78;0.90;;;;;;;;;;5070536;28;20328;-14
2022/09/19 11:38:55;;;;;;;8.02;0.85;;;;;;;;;;5078622;28;20268;-14
2022/09/19 11:41:46;;;;;;;3.85;1.00;;;;;;;;;;5067697;28;20235;-14
2022/09/19 11:44:20;;;;;;;10.40;1.35;;;;;;;;;;5084663;28;20286;-14
2022/09/19 11:46:49;;;;;;;4.57;0.68;;;;;;;;;;5079771;28;20288;-14
2022/09/19 11:49:22;;;;;;;5.97;0.95;;;;;;;;;;5069696;28;20221;-14
2022/09/19 11:51:50;;;;;;;4.25;1.00;;;;;;;;;;5069749;28;20324;-14
2022/09/19 11:54:25;;;;;;;5.47;0.80;;;;;;;;;;5070878;28;20237;-14
2022/09/19 11:56:56;;;;;;;4.07;0.90;;;;;;;;;;5070513;28;20779;-14
2022/09/19 11:59:33;;;;;;;12.55;1.10;;;;;;;;;;5069852;28;20299;-14
2022/09/19 12:02:06;;;;;;;5.47;0.82;;;;;;;;;;5086190;28;20233;-14
2022/09/19 12:04:35;;;;;;;8.95;1.05;;;;;;;;;;5088581;28;20237;-14
2022/09/19 12:07:15;;;;;;;3.95;0.93;;;;;;;;;;5090431;28;20269;-14
2022/09/19 12:09:44;;;;;;;7.07;1.13;;;;;;;;;;5079154;28;20251;-14
2022/09/19 12:12:13;;;;;;;4.82;0.80;;;;;;;;;;5089444;28;20228;-14
2022/09/19 12:14:42;;;;;;;12.35;1.42;;;;;;;;;;5069814;28;21046;-14
2022/09/19 12:17:10;;;;;;;5.25;1.25;;;;;;;;;;5085232;28;20443;-14
2022/09/19 12:19:38;;;;;;;7.20;1.35;;;;;;;;;;5090137;28;20237;-14
2022/09/19 12:22:06;;;;;;;10.02;1.17;;;;;;;;;;5076706;28;20237;-14
2022/09/19 12:27:21;;;;;;;4.60;1.20;;;;;;;;;;5089659;28;20240;-14
2022/09/19 12:29:50;;;;;;;6.72;1.42;;;;;;;;;;5081633;28;20225;-14
2022/09/19 12:32:19;;;;;;;8.32;1.30;;;;;;;;;;5088659;28;20691;-14
2022/09/19 12:34:47;;;;;;;5.82;0.80;;;;;;;;;;5081093;28;20237;-14
2022/09/19 12:37:16;;;;;;;8.30;1.15;;;;;;;;;;5082474;28;20223;-14
2022/09/19 12:39:46;;;;;;;5.50;1.00;;;;;;;;;;5092572;28;20233;-14
2022/09/19 12:42:15;;;;;;;4.03;1.02;;;;;;;;;;5093744;28;20290;-14
2022/09/19 12:44:47;;;;;;;4.82;1.15;;;;;;;;;;5081482;28;20754;-14
2022/09/19 12:47:17;;;;;;;6.13;0.80;;;;;;;;;;5091068;28;20286;-14
2022/09/19 12:49:47;;;;;;;6.97;0.95;;;;;;;;;;5078894;28;20233;-14
2022/09/19 12:52:17;;;;;;;3.17;0.88;;;;;;;;;;5086548;28;20225;-14
2022/09/19 12:54:46;;;;;;;3.75;0.90;;;;;;;;;;5092551;28;20236;-14
2022/09/19 12:57:16;;;;;;;3.63;1.05;;;;;;;;;;5093219;28;20274;-14
2022/09/19 12:59:44;;;;;;;5.70;1.20;;;;;;;;;;5080785;28;20291;-14
2022/09/19 13:02:13;;;;;;;3.72;1.00;;;;;;;;;;5089561;28;20241;-14
2022/09/19 13:04:42;;;;;;;4.40;0.98;;;;;;;;;;5081593;28;20236;-14
2022/09/19 13:07:10;;;;;;;6.53;1.00;;;;;;;;;;5084779;28;20237;-14
2022/09/19 13:09:39;;;;;;;4.07;1.15;;;;;;;;;;5082012;28;20237;-14
2022/09/19 13:12:07;;;;;;;6.03;0.75;;;;;;;;;;5072092;28;20691;-14
2022/09/19 13:14:36;;;;;;;4.38;1.02;;;;;;;;;;5072029;28;20230;-14
2022/09/19 13:25:27;;;;;;;16.95;1.58;;;;;;;;;;5071945;28;20229;-14
2022/09/19 13:28:23;;;;;;;12.77;1.27;;;;;;;;;;5073014;28;20226;-14
2022/09/19 13:30:51;;;;;;;22.38;1.40;;;;;;;;;;5077938;28;20697;-14
2022/09/19 13:33:21;;;;;;;9.52;1.42;;;;;;;;;;5080455;28;20236;-14
2022/09/19 13:35:51;;;;;;;9.25;1.17;;;;;;;;;;5091051;28;20290;-14
2022/09/19 13:38:25;;;;;;;7.82;1.23;;;;;;;;;;5086410;28;20259;-14
2022/09/19 13:40:57;;;;;;;5.75;1.02;;;;;;;;;;5091865;28;20711;-14
2022/09/19 13:43:27;;;;;;;6.00;0.73;;;;;;;;;;5088771;28;20266;-14
2022/09/19 13:45:56;;;;;;;9.70;1.05;;;;;;;;;;5078670;28;20278;-14
2022/09/19 13:48:32;;;;;;;1.95;0.90;;;;;;;;;;5090620;28;20221;-14
2022/09/19 13:51:03;;;;;;;5.25;0.98;;;;;;;;;;5072021;28;20229;-14
2022/09/19 13:53:33;;;;;;;3.17;0.73;;;;;;;;;;5072330;28;20225;-14
2022/09/19 13:56:01;;;;;;;4.07;0.80;;;;;;;;;;5090646;28;20294;-14
2022/09/19 13:58:30;;;;;;;4.03;0.73;;;;;;;;;;5090513;28;20233;-14
2022/09/19 14:01:07;;;;;;;6.38;0.75;;;;;;;;;;5078775;28;20240;-14
2022/09/19 14:03:36;;;;;;;4.57;0.80;;;;;;;;;;5081568;28;21037;-14
2022/09/19 14:06:20;;;;;;;6.25;0.93;;;;;;;;;;5075323;28;20233;-14
2022/09/19 14:08:48;;;;;;;5.25;0.80;;;;;;;;;;5071643;28;20229;-14
2022/09/19 14:11:36;;;;;;;5.82;0.98;;;;;;;;;;5071454;28;20263;-14
2022/09/19 14:14:18;;;;;;;5.82;0.93;;;;;;;;;;5071597;28;20295;-14
2022/09/19 14:16:46;;;;;;;3.90;0.80;;;;;;;;;;5079555;28;20234;-14
2022/09/19 14:19:28;;;;;;;3.60;1.00;;;;;;;;;;5070718;28;20225;-14
2022/09/19 14:21:57;;;;;;;2.72;0.77;;;;;;;;;;5087647;28;20245;-14
2022/09/19 14:24:35;;;;;;;7.30;1.20;;;;;;;;;;5071440;28;20232;-14
2022/09/19 14:27:04;;;;;;;4.35;0.80;;;;;;;;;;5071165;28;20225;-14
2022/09/19 14:29:34;;;;;;;5.25;0.85;;;;;;;;;;5071888;28;20240;-14
2022/09/19 14:32:05;;;;;;;3.17;0.73;;;;;;;;;;5072016;28;20237;-13
2022/09/19 14:34:51;;;;;;;4.78;0.93;;;;;;;;;;5091927;28;20232;-14
2022/09/19 14:37:29;;;;;;;2.88;0.50;;;;;;;;;;5078472;28;20230;-14
2022/09/19 14:40:05;;;;;;;3.75;0.80;;;;;;;;;;5071113;28;20241;-14
2022/09/19 14:42:47;;;;;;;3.50;0.90;;;;;;;;;;5071128;28;20268;-14
2022/09/19 14:45:24;;;;;;;4.07;0.95;;;;;;;;;;5071576;28;20229;-14
2022/09/19 14:47:53;;;;;;;3.08;0.88;;;;;;;;;;5091263;28;20908;-16
2022/09/19 14:50:20;;;;;;;9.32;1.63;;;;;;;;;;5089454;28;20282;-14
2022/09/19 14:52:57;;;;;;;10.30;1.30;;;;;;;;;;5091226;28;21046;-15
2022/09/19 14:55:25;;;;;;;11.48;1.60;;;;;;;;;;5074625;28;21054;-15
2022/09/19 14:57:54;;;;;;;8.35;1.23;;;;;;;;;;5092117;28;21126;-15
2022/09/19 15:00:22;;;;;;;9.50;1.13;;;;;;;;;;5074439;28;20237;-14
2022/09/19 15:02:49;;;;;;;8.20;1.30;;;;;;;;;;5071835;28;20248;-14
2022/09/19 15:05:18;;;;;;;7.53;1.30;;;;;;;;;;5070658;28;20291;-15
2022/09/19 15:07:45;;;;;;;4.55;1.10;;;;;;;;;;5086598;28;20228;-15
2022/09/19 15:10:24;;;;;;;9.18;1.50;;;;;;;;;;5090258;28;20229;-15
2022/09/19 15:12:53;;;;;;;8.88;1.35;;;;;;;;;;5087931;28;20232;-14
2022/09/19 15:15:22;;;;;;;10.73;1.67;;;;;;;;;;5079240;28;20700;-14
2022/09/19 15:17:51;;;;;;;8.85;1.33;;;;;;;;;;5078935;28;20359;-15
2022/09/19 15:20:18;;;;;;;19.55;2.03;;;;;;;;;;5079452;28;20286;-14
2022/09/19 15:22:51;;;;;;;11.52;1.70;;;;;;;;;;5073546;28;20300;-14
2022/09/19 15:25:21;;;;;;;16.50;2.55;;;;;;;;;;5079675;28;20235;-15
2022/09/19 15:27:52;;;;;;;12.30;1.70;;;;;;;;;;5077630;28;20233;-15